sensor_id;sensor_type;location;lat;lon;timestamp;P1;durP1;ratioP1;P2;durP2;ratioP2
64075;SDS011;50327;51.328;12.324;2023-04-15T00:01:52;18.15;;;9.40;;
64075;SDS011;50327;51.328;12.324;2023-04-15T00:04:17;16.73;;;10.13;;
64075;SDS011;50327;51.328;12.324;2023-04-15T00:06:48;17.17;;;9.00;;
64075;SDS011;50327;51.328;12.324;2023-04-15T00:09:14;15.30;;;8.70;;
64075;SDS011;50327;51.328;12.324;2023-04-15T00:11:39;14.50;;;8.48;;
64075;SDS011;50327;51.328;12.324;2023-04-15T00:14:04;12.18;;;6.90;;
64075;SDS011;50327;51.328;12.324;2023-04-15T00:16:30;11.73;;;7.00;;
64075;SDS011;50327;51.328;12.324;2023-04-15T00:18:55;13.52;;;6.82;;
64075;SDS011;50327;51.328;12.324;2023-04-15T00:21:20;12.35;;;5.28;;
64075;SDS011;50327;51.328;12.324;2023-04-15T00:23:46;11.55;;;5.97;;
64075;SDS011;50327;51.328;12.324;2023-04-15T00:26:16;11.73;;;5.68;;
64075;SDS011;50327;51.328;12.324;2023-04-15T00:28:43;12.10;;;5.80;;
64075;SDS011;50327;51.328;12.324;2023-04-15T00:31:08;13.05;;;6.53;;
64075;SDS011;50327;51.328;12.324;2023-04-15T00:33:33;11.02;;;6.45;;
64075;SDS011;50327;51.328;12.324;2023-04-15T00:36:00;12.07;;;6.00;;
64075;SDS011;50327;51.328;12.324;2023-04-15T00:38:26;9.55;;;5.72;;
64075;SDS011;50327;51.328;12.324;2023-04-15T00:40:52;8.30;;;5.00;;
64075;SDS011;50327;51.328;12.324;2023-04-15T00:43:17;10.40;;;5.68;;
64075;SDS011;50327;51.328;12.324;2023-04-15T00:45:42;9.27;;;5.47;;
64075;SDS011;50327;51.328;12.324;2023-04-15T00:48:08;10.52;;;6.30;;
64075;SDS011;50327;51.328;12.324;2023-04-15T00:50:33;8.85;;;5.25;;
64075;SDS011;50327;51.328;12.324;2023-04-15T00:52:58;13.80;;;5.13;;
64075;SDS011;50327;51.328;12.324;2023-04-15T00:55:24;13.52;;;5.88;;
64075;SDS011;50327;51.328;12.324;2023-04-15T00:57:49;8.20;;;5.00;;
64075;SDS011;50327;51.328;12.324;2023-04-15T01:00:14;10.55;;;6.05;;
64075;SDS011;50327;51.328;12.324;2023-04-15T01:02:40;9.57;;;5.55;;
64075;SDS011;50327;51.328;12.324;2023-04-15T01:05:06;10.90;;;5.82;;
64075;SDS011;50327;51.328;12.324;2023-04-15T01:07:31;11.32;;;5.95;;
64075;SDS011;50327;51.328;12.324;2023-04-15T01:09:56;9.88;;;5.43;;
64075;SDS011;50327;51.328;12.324;2023-04-15T01:12:22;9.05;;;5.40;;
64075;SDS011;50327;51.328;12.324;2023-04-15T01:14:48;10.23;;;5.53;;
64075;SDS011;50327;51.328;12.324;2023-04-15T01:17:14;11.05;;;6.28;;
64075;SDS011;50327;51.328;12.324;2023-04-15T01:19:39;13.05;;;6.55;;
64075;SDS011;50327;51.328;12.324;2023-04-15T01:22:04;9.45;;;5.55;;
64075;SDS011;50327;51.328;12.324;2023-04-15T01:24:30;11.55;;;6.82;;
64075;SDS011;50327;51.328;12.324;2023-04-15T01:26:56;12.68;;;6.03;;
64075;SDS011;50327;51.328;12.324;2023-04-15T01:29:21;11.75;;;6.50;;
64075;SDS011;50327;51.328;12.324;2023-04-15T01:31:50;12.77;;;7.03;;
64075;SDS011;50327;51.328;12.324;2023-04-15T01:36:41;9.98;;;5.85;;
64075;SDS011;50327;51.328;12.324;2023-04-15T01:39:06;11.23;;;5.97;;
64075;SDS011;50327;51.328;12.324;2023-04-15T01:41:32;10.48;;;6.03;;
64075;SDS011;50327;51.328;12.324;2023-04-15T01:43:57;10.82;;;5.85;;
64075;SDS011;50327;51.328;12.324;2023-04-15T01:46:22;13.52;;;5.93;;
64075;SDS011;50327;51.328;12.324;2023-04-15T01:48:48;13.20;;;6.15;;
64075;SDS011;50327;51.328;12.324;2023-04-15T01:51:13;12.35;;;6.80;;
64075;SDS011;50327;51.328;12.324;2023-04-15T01:53:39;11.55;;;6.78;;
64075;SDS011;50327;51.328;12.324;2023-04-15T01:56:04;12.77;;;6.95;;
64075;SDS011;50327;51.328;12.324;2023-04-15T01:58:31;12.43;;;6.32;;
64075;SDS011;50327;51.328;12.324;2023-04-15T02:00:56;14.23;;;7.28;;
64075;SDS011;50327;51.328;12.324;2023-04-15T02:03:23;10.68;;;5.30;;
64075;SDS011;50327;51.328;12.324;2023-04-15T02:05:48;12.68;;;6.60;;
64075;SDS011;50327;51.328;12.324;2023-04-15T02:08:15;13.27;;;5.75;;
64075;SDS011;50327;51.328;12.324;2023-04-15T02:10:40;9.95;;;5.72;;
64075;SDS011;50327;51.328;12.324;2023-04-15T02:13:05;10.55;;;5.75;;
64075;SDS011;50327;51.328;12.324;2023-04-15T02:15:31;11.95;;;5.30;;
64075;SDS011;50327;51.328;12.324;2023-04-15T02:17:57;10.60;;;5.72;;
64075;SDS011;50327;51.328;12.324;2023-04-15T02:20:24;11.57;;;5.70;;
64075;SDS011;50327;51.328;12.324;2023-04-15T02:22:50;12.25;;;5.72;;
64075;SDS011;50327;51.328;12.324;2023-04-15T02:25:16;11.93;;;6.25;;
64075;SDS011;50327;51.328;12.324;2023-04-15T02:27:41;13.90;;;5.90;;
64075;SDS011;50327;51.328;12.324;2023-04-15T02:30:07;11.93;;;6.30;;
64075;SDS011;50327;51.328;12.324;2023-04-15T02:32:33;11.35;;;6.38;;
64075;SDS011;50327;51.328;12.324;2023-04-15T02:35:02;12.65;;;6.63;;
64075;SDS011;50327;51.328;12.324;2023-04-15T02:37:28;14.73;;;7.28;;
64075;SDS011;50327;51.328;12.324;2023-04-15T02:39:54;10.02;;;5.43;;
64075;SDS011;50327;51.328;12.324;2023-04-15T02:42:20;11.20;;;5.45;;
64075;SDS011;50327;51.328;12.324;2023-04-15T02:44:45;11.65;;;6.05;;
64075;SDS011;50327;51.328;12.324;2023-04-15T02:47:10;11.32;;;6.00;;
64075;SDS011;50327;51.328;12.324;2023-04-15T02:49:36;15.45;;;7.22;;
64075;SDS011;50327;51.328;12.324;2023-04-15T02:52:01;13.82;;;7.07;;
64075;SDS011;50327;51.328;12.324;2023-04-15T02:54:26;17.27;;;7.88;;
64075;SDS011;50327;51.328;12.324;2023-04-15T02:56:54;19.67;;;8.80;;
64075;SDS011;50327;51.328;12.324;2023-04-15T02:59:20;16.60;;;8.52;;
64075;SDS011;50327;51.328;12.324;2023-04-15T03:01:46;20.02;;;9.23;;
64075;SDS011;50327;51.328;12.324;2023-04-15T03:04:11;22.77;;;9.00;;
64075;SDS011;50327;51.328;12.324;2023-04-15T03:06:37;17.88;;;9.32;;
64075;SDS011;50327;51.328;12.324;2023-04-15T03:09:02;22.48;;;10.57;;
64075;SDS011;50327;51.328;12.324;2023-04-15T03:11:28;22.05;;;11.30;;
64075;SDS011;50327;51.328;12.324;2023-04-15T03:13:53;21.35;;;9.50;;
64075;SDS011;50327;51.328;12.324;2023-04-15T03:16:18;23.42;;;10.75;;
64075;SDS011;50327;51.328;12.324;2023-04-15T03:18:43;16.67;;;8.73;;
64075;SDS011;50327;51.328;12.324;2023-04-15T03:21:09;17.27;;;8.65;;
64075;SDS011;50327;51.328;12.324;2023-04-15T03:23:34;18.10;;;8.80;;
64075;SDS011;50327;51.328;12.324;2023-04-15T03:26:02;13.55;;;7.93;;
64075;SDS011;50327;51.328;12.324;2023-04-15T03:28:28;17.25;;;7.63;;
64075;SDS011;50327;51.328;12.324;2023-04-15T03:30:54;16.48;;;8.13;;
64075;SDS011;50327;51.328;12.324;2023-04-15T03:33:19;19.05;;;9.13;;
64075;SDS011;50327;51.328;12.324;2023-04-15T03:35:44;16.45;;;7.72;;
64075;SDS011;50327;51.328;12.324;2023-04-15T03:38:10;17.02;;;8.63;;
64075;SDS011;50327;51.328;12.324;2023-04-15T03:40:35;16.75;;;7.75;;
64075;SDS011;50327;51.328;12.324;2023-04-15T03:43:01;18.92;;;10.35;;
64075;SDS011;50327;51.328;12.324;2023-04-15T03:45:26;17.67;;;8.80;;
64075;SDS011;50327;51.328;12.324;2023-04-15T03:47:52;17.15;;;8.75;;
64075;SDS011;50327;51.328;12.324;2023-04-15T03:50:17;13.07;;;7.60;;
64075;SDS011;50327;51.328;12.324;2023-04-15T03:52:43;15.45;;;8.18;;
64075;SDS011;50327;51.328;12.324;2023-04-15T03:55:08;12.07;;;6.28;;
64075;SDS011;50327;51.328;12.324;2023-04-15T03:57:33;13.50;;;7.82;;
64075;SDS011;50327;51.328;12.324;2023-04-15T04:00:02;15.20;;;7.13;;
64075;SDS011;50327;51.328;12.324;2023-04-15T04:02:27;10.85;;;6.25;;
64075;SDS011;50327;51.328;12.324;2023-04-15T04:04:53;11.98;;;6.00;;
64075;SDS011;50327;51.328;12.324;2023-04-15T04:07:18;11.85;;;5.82;;
64075;SDS011;50327;51.328;12.324;2023-04-15T04:09:43;14.32;;;6.50;;
64075;SDS011;50327;51.328;12.324;2023-04-15T04:12:08;11.82;;;6.00;;
64075;SDS011;50327;51.328;12.324;2023-04-15T04:14:34;11.55;;;5.70;;
64075;SDS011;50327;51.328;12.324;2023-04-15T04:16:59;10.07;;;5.47;;
64075;SDS011;50327;51.328;12.324;2023-04-15T04:19:24;12.77;;;6.25;;
64075;SDS011;50327;51.328;12.324;2023-04-15T04:21:50;10.70;;;5.53;;
64075;SDS011;50327;51.328;12.324;2023-04-15T04:24:15;11.43;;;5.78;;
64075;SDS011;50327;51.328;12.324;2023-04-15T04:26:41;12.75;;;6.32;;
64075;SDS011;50327;51.328;12.324;2023-04-15T04:29:06;12.07;;;6.35;;
64075;SDS011;50327;51.328;12.324;2023-04-15T04:31:31;9.73;;;5.35;;
64075;SDS011;50327;51.328;12.324;2023-04-15T04:33:57;11.48;;;5.97;;
64075;SDS011;50327;51.328;12.324;2023-04-15T04:36:22;9.32;;;4.78;;
64075;SDS011;50327;51.328;12.324;2023-04-15T04:38:47;12.45;;;5.75;;
64075;SDS011;50327;51.328;12.324;2023-04-15T04:41:13;10.13;;;5.50;;
64075;SDS011;50327;51.328;12.324;2023-04-15T04:43:38;9.95;;;5.25;;
64075;SDS011;50327;51.328;12.324;2023-04-15T04:46:03;10.73;;;5.30;;
64075;SDS011;50327;51.328;12.324;2023-04-15T04:48:31;10.50;;;5.43;;
64075;SDS011;50327;51.328;12.324;2023-04-15T04:50:57;11.82;;;5.63;;
64075;SDS011;50327;51.328;12.324;2023-04-15T04:53:22;9.98;;;5.30;;
64075;SDS011;50327;51.328;12.324;2023-04-15T04:55:48;9.93;;;4.90;;
64075;SDS011;50327;51.328;12.324;2023-04-15T04:58:13;10.32;;;5.63;;
64075;SDS011;50327;51.328;12.324;2023-04-15T05:00:39;10.75;;;5.50;;
64075;SDS011;50327;51.328;12.324;2023-04-15T05:03:04;12.75;;;5.63;;
64075;SDS011;50327;51.328;12.324;2023-04-15T05:05:29;11.27;;;6.00;;
64075;SDS011;50327;51.328;12.324;2023-04-15T05:07:55;12.80;;;6.30;;
64075;SDS011;50327;51.328;12.324;2023-04-15T05:10:20;10.00;;;5.28;;
64075;SDS011;50327;51.328;12.324;2023-04-15T05:12:45;14.77;;;6.55;;
64075;SDS011;50327;51.328;12.324;2023-04-15T05:15:11;11.55;;;5.47;;
64075;SDS011;50327;51.328;12.324;2023-04-15T05:17:36;11.15;;;5.47;;
64075;SDS011;50327;51.328;12.324;2023-04-15T05:20:01;10.60;;;5.03;;
64075;SDS011;50327;51.328;12.324;2023-04-15T05:22:30;10.52;;;5.10;;
64075;SDS011;50327;51.328;12.324;2023-04-15T05:24:55;9.02;;;4.55;;
64075;SDS011;50327;51.328;12.324;2023-04-15T05:27:20;10.10;;;5.35;;
64075;SDS011;50327;51.328;12.324;2023-04-15T05:29:46;9.90;;;4.82;;
64075;SDS011;50327;51.328;12.324;2023-04-15T05:32:11;15.07;;;5.15;;
64075;SDS011;50327;51.328;12.324;2023-04-15T05:34:37;10.30;;;5.18;;
64075;SDS011;50327;51.328;12.324;2023-04-15T05:37:02;7.28;;;4.10;;
64075;SDS011;50327;51.328;12.324;2023-04-15T05:39:27;12.82;;;6.85;;
64075;SDS011;50327;51.328;12.324;2023-04-15T05:41:52;9.80;;;5.43;;
64075;SDS011;50327;51.328;12.324;2023-04-15T05:44:17;12.38;;;5.47;;
64075;SDS011;50327;51.328;12.324;2023-04-15T05:46:43;12.38;;;6.47;;
64075;SDS011;50327;51.328;12.324;2023-04-15T05:49:08;10.57;;;5.85;;
64075;SDS011;50327;51.328;12.324;2023-04-15T05:51:33;11.50;;;5.93;;
64075;SDS011;50327;51.328;12.324;2023-04-15T05:53:58;11.60;;;5.97;;
64075;SDS011;50327;51.328;12.324;2023-04-15T05:56:24;12.40;;;6.20;;
64075;SDS011;50327;51.328;12.324;2023-04-15T05:58:51;11.50;;;6.07;;
64075;SDS011;50327;51.328;12.324;2023-04-15T06:01:16;11.20;;;5.80;;
64075;SDS011;50327;51.328;12.324;2023-04-15T06:03:41;9.77;;;5.63;;
64075;SDS011;50327;51.328;12.324;2023-04-15T06:06:07;9.25;;;5.15;;
64075;SDS011;50327;51.328;12.324;2023-04-15T06:08:32;13.43;;;6.55;;
64075;SDS011;50327;51.328;12.324;2023-04-15T06:10:58;11.90;;;6.20;;
64075;SDS011;50327;51.328;12.324;2023-04-15T06:13:23;8.48;;;4.50;;
64075;SDS011;50327;51.328;12.324;2023-04-15T06:15:48;11.57;;;5.20;;
64075;SDS011;50327;51.328;12.324;2023-04-15T06:18:13;9.80;;;5.25;;
64075;SDS011;50327;51.328;12.324;2023-04-15T06:20:39;10.38;;;5.18;;
64075;SDS011;50327;51.328;12.324;2023-04-15T06:23:04;11.15;;;5.28;;
64075;SDS011;50327;51.328;12.324;2023-04-15T06:25:29;10.93;;;5.22;;
64075;SDS011;50327;51.328;12.324;2023-04-15T06:27:55;12.77;;;5.30;;
64075;SDS011;50327;51.328;12.324;2023-04-15T06:30:20;7.03;;;4.07;;
64075;SDS011;50327;51.328;12.324;2023-04-15T06:32:45;9.25;;;5.20;;
64075;SDS011;50327;51.328;12.324;2023-04-15T06:35:11;12.80;;;5.20;;
64075;SDS011;50327;51.328;12.324;2023-04-15T06:37:36;8.85;;;4.75;;
64075;SDS011;50327;51.328;12.324;2023-04-15T06:40:01;9.27;;;5.30;;
64075;SDS011;50327;51.328;12.324;2023-04-15T06:42:29;9.57;;;5.32;;
64075;SDS011;50327;51.328;12.324;2023-04-15T06:44:54;9.00;;;5.25;;
64075;SDS011;50327;51.328;12.324;2023-04-15T06:47:20;10.98;;;4.80;;
64075;SDS011;50327;51.328;12.324;2023-04-15T06:49:45;10.23;;;4.82;;
64075;SDS011;50327;51.328;12.324;2023-04-15T06:52:10;10.73;;;5.60;;
64075;SDS011;50327;51.328;12.324;2023-04-15T06:54:36;9.95;;;5.15;;
64075;SDS011;50327;51.328;12.324;2023-04-15T06:57:01;10.27;;;5.15;;
64075;SDS011;50327;51.328;12.324;2023-04-15T06:59:27;11.15;;;5.60;;
64075;SDS011;50327;51.328;12.324;2023-04-15T07:01:52;10.77;;;6.25;;
64075;SDS011;50327;51.328;12.324;2023-04-15T07:04:18;11.07;;;6.22;;
64075;SDS011;50327;51.328;12.324;2023-04-15T07:06:43;10.27;;;5.72;;
64075;SDS011;50327;51.328;12.324;2023-04-15T07:09:09;11.38;;;6.13;;
64075;SDS011;50327;51.328;12.324;2023-04-15T07:11:34;11.27;;;5.97;;
64075;SDS011;50327;51.328;12.324;2023-04-15T07:14:00;11.88;;;6.30;;
64075;SDS011;50327;51.328;12.324;2023-04-15T07:16:25;12.07;;;6.32;;
64075;SDS011;50327;51.328;12.324;2023-04-15T07:18:50;13.57;;;6.60;;
64075;SDS011;50327;51.328;12.324;2023-04-15T07:21:16;15.80;;;7.30;;
64075;SDS011;50327;51.328;12.324;2023-04-15T07:23:41;16.45;;;7.70;;
64075;SDS011;50327;51.328;12.324;2023-04-15T07:26:07;17.45;;;7.80;;
64075;SDS011;50327;51.328;12.324;2023-04-15T07:28:32;12.63;;;6.80;;
64075;SDS011;50327;51.328;12.324;2023-04-15T07:30:58;12.57;;;6.55;;
64075;SDS011;50327;51.328;12.324;2023-04-15T07:33:23;12.10;;;6.22;;
64075;SDS011;50327;51.328;12.324;2023-04-15T07:35:48;14.68;;;7.57;;
64075;SDS011;50327;51.328;12.324;2023-04-15T07:38:14;14.68;;;7.45;;
64075;SDS011;50327;51.328;12.324;2023-04-15T07:40:39;13.73;;;7.20;;
64075;SDS011;50327;51.328;12.324;2023-04-15T07:43:04;15.68;;;7.57;;
64075;SDS011;50327;51.328;12.324;2023-04-15T07:45:30;15.20;;;8.27;;
64075;SDS011;50327;51.328;12.324;2023-04-15T07:47:55;16.17;;;7.70;;
64075;SDS011;50327;51.328;12.324;2023-04-15T07:50:21;15.05;;;7.90;;
64075;SDS011;50327;51.328;12.324;2023-04-15T07:52:47;14.32;;;6.85;;
64075;SDS011;50327;51.328;12.324;2023-04-15T07:55:13;18.50;;;7.30;;
64075;SDS011;50327;51.328;12.324;2023-04-15T07:57:38;17.13;;;8.45;;
64075;SDS011;50327;51.328;12.324;2023-04-15T08:00:04;17.55;;;8.57;;
64075;SDS011;50327;51.328;12.324;2023-04-15T08:02:29;16.33;;;7.97;;
64075;SDS011;50327;51.328;12.324;2023-04-15T08:04:55;18.52;;;8.60;;
64075;SDS011;50327;51.328;12.324;2023-04-15T08:07:21;17.48;;;8.57;;
64075;SDS011;50327;51.328;12.324;2023-04-15T08:09:47;17.77;;;9.18;;
64075;SDS011;50327;51.328;12.324;2023-04-15T08:12:12;20.85;;;9.55;;
64075;SDS011;50327;51.328;12.324;2023-04-15T08:14:37;22.02;;;9.25;;
64075;SDS011;50327;51.328;12.324;2023-04-15T08:17:03;16.17;;;7.38;;
64075;SDS011;50327;51.328;12.324;2023-04-15T08:19:28;16.42;;;8.75;;
64075;SDS011;50327;51.328;12.324;2023-04-15T08:21:54;16.38;;;8.60;;
64075;SDS011;50327;51.328;12.324;2023-04-15T08:24:19;14.50;;;8.00;;
64075;SDS011;50327;51.328;12.324;2023-04-15T08:26:44;17.30;;;8.32;;
64075;SDS011;50327;51.328;12.324;2023-04-15T08:29:11;14.07;;;7.93;;
64075;SDS011;50327;51.328;12.324;2023-04-15T08:31:36;16.08;;;8.77;;
64075;SDS011;50327;51.328;12.324;2023-04-15T08:34:01;15.20;;;8.32;;
64075;SDS011;50327;51.328;12.324;2023-04-15T08:36:27;14.73;;;8.88;;
64075;SDS011;50327;51.328;12.324;2023-04-15T08:38:52;16.58;;;8.60;;
64075;SDS011;50327;51.328;12.324;2023-04-15T08:41:21;18.02;;;9.13;;
64075;SDS011;50327;51.328;12.324;2023-04-15T08:43:56;14.32;;;7.55;;
64075;SDS011;50327;51.328;12.324;2023-04-15T08:46:21;15.75;;;7.65;;
64075;SDS011;50327;51.328;12.324;2023-04-15T08:48:47;15.85;;;8.95;;
64075;SDS011;50327;51.328;12.324;2023-04-15T08:51:13;15.75;;;8.80;;
64075;SDS011;50327;51.328;12.324;2023-04-15T08:53:40;21.67;;;9.70;;
64075;SDS011;50327;51.328;12.324;2023-04-15T08:56:06;20.77;;;10.07;;
64075;SDS011;50327;51.328;12.324;2023-04-15T08:58:31;17.77;;;8.73;;
64075;SDS011;50327;51.328;12.324;2023-04-15T09:00:57;21.70;;;10.20;;
64075;SDS011;50327;51.328;12.324;2023-04-15T09:03:22;20.77;;;9.85;;
64075;SDS011;50327;51.328;12.324;2023-04-15T09:05:49;23.92;;;10.25;;
64075;SDS011;50327;51.328;12.324;2023-04-15T09:08:14;19.23;;;10.20;;
64075;SDS011;50327;51.328;12.324;2023-04-15T09:10:40;17.42;;;10.27;;
64075;SDS011;50327;51.328;12.324;2023-04-15T09:13:05;20.75;;;10.52;;
64075;SDS011;50327;51.328;12.324;2023-04-15T09:15:30;22.42;;;10.55;;
64075;SDS011;50327;51.328;12.324;2023-04-15T09:17:56;17.80;;;10.02;;
64075;SDS011;50327;51.328;12.324;2023-04-15T09:20:22;20.63;;;11.70;;
64075;SDS011;50327;51.328;12.324;2023-04-15T09:22:47;25.13;;;11.55;;
64075;SDS011;50327;51.328;12.324;2023-04-15T09:27:46;21.10;;;11.25;;
64075;SDS011;50327;51.328;12.324;2023-04-15T09:30:12;23.55;;;12.40;;
64075;SDS011;50327;51.328;12.324;2023-04-15T09:32:46;27.35;;;11.75;;
64075;SDS011;50327;51.328;12.324;2023-04-15T09:35:11;26.67;;;12.18;;
64075;SDS011;50327;51.328;12.324;2023-04-15T09:37:37;23.77;;;11.13;;
64075;SDS011;50327;51.328;12.324;2023-04-15T09:40:02;24.65;;;13.30;;
64075;SDS011;50327;51.328;12.324;2023-04-15T09:42:27;22.50;;;12.70;;
64075;SDS011;50327;51.328;12.324;2023-04-15T09:44:53;27.98;;;12.70;;
64075;SDS011;50327;51.328;12.324;2023-04-15T09:47:28;30.00;;;15.48;;
64075;SDS011;50327;51.328;12.324;2023-04-15T09:49:54;28.63;;;15.25;;
64075;SDS011;50327;51.328;12.324;2023-04-15T09:52:19;31.20;;;15.68;;
64075;SDS011;50327;51.328;12.324;2023-04-15T09:54:45;35.85;;;17.27;;
64075;SDS011;50327;51.328;12.324;2023-04-15T09:57:10;37.80;;;16.05;;
64075;SDS011;50327;51.328;12.324;2023-04-15T09:59:36;30.52;;;14.95;;
64075;SDS011;50327;51.328;12.324;2023-04-15T10:02:03;32.17;;;14.98;;
64075;SDS011;50327;51.328;12.324;2023-04-15T10:04:29;33.03;;;16.67;;
64075;SDS011;50327;51.328;12.324;2023-04-15T10:06:55;34.65;;;17.45;;
64075;SDS011;50327;51.328;12.324;2023-04-15T10:09:20;28.27;;;15.57;;
64075;SDS011;50327;51.328;12.324;2023-04-15T10:11:46;27.10;;;14.25;;
64075;SDS011;50327;51.328;12.324;2023-04-15T10:14:13;32.30;;;17.67;;
64075;SDS011;50327;51.328;12.324;2023-04-15T10:16:39;30.52;;;16.15;;
64075;SDS011;50327;51.328;12.324;2023-04-15T10:19:07;32.05;;;17.05;;
64075;SDS011;50327;51.328;12.324;2023-04-15T10:21:33;37.08;;;18.30;;
64075;SDS011;50327;51.328;12.324;2023-04-15T10:23:59;33.13;;;16.75;;
64075;SDS011;50327;51.328;12.324;2023-04-15T10:26:25;32.17;;;17.35;;
64075;SDS011;50327;51.328;12.324;2023-04-15T10:28:51;34.42;;;17.48;;
64075;SDS011;50327;51.328;12.324;2023-04-15T10:31:17;35.88;;;19.33;;
64075;SDS011;50327;51.328;12.324;2023-04-15T10:33:43;34.28;;;18.40;;
64075;SDS011;50327;51.328;12.324;2023-04-15T10:36:09;36.53;;;18.02;;
64075;SDS011;50327;51.328;12.324;2023-04-15T10:38:39;29.52;;;17.33;;
64075;SDS011;50327;51.328;12.324;2023-04-15T10:43:37;35.95;;;18.20;;
64075;SDS011;50327;51.328;12.324;2023-04-15T10:46:03;29.35;;;17.17;;
64075;SDS011;50327;51.328;12.324;2023-04-15T10:48:29;28.95;;;16.55;;
64075;SDS011;50327;51.328;12.324;2023-04-15T10:50:55;30.65;;;17.30;;
64075;SDS011;50327;51.328;12.324;2023-04-15T10:53:29;33.00;;;17.20;;
64075;SDS011;50327;51.328;12.324;2023-04-15T10:55:56;34.72;;;17.67;;
64075;SDS011;50327;51.328;12.324;2023-04-15T10:58:24;29.50;;;15.55;;
64075;SDS011;50327;51.328;12.324;2023-04-15T11:00:50;29.25;;;16.90;;
64075;SDS011;50327;51.328;12.324;2023-04-15T11:03:38;26.73;;;16.55;;
64075;SDS011;50327;51.328;12.324;2023-04-15T11:06:04;28.90;;;16.90;;
64075;SDS011;50327;51.328;12.324;2023-04-15T11:11:14;25.73;;;15.55;;
64075;SDS011;50327;51.328;12.324;2023-04-15T11:13:46;31.38;;;15.82;;
64075;SDS011;50327;51.328;12.324;2023-04-15T11:16:12;29.70;;;16.45;;
64075;SDS011;50327;51.328;12.324;2023-04-15T11:18:37;24.10;;;15.38;;
64075;SDS011;50327;51.328;12.324;2023-04-15T11:21:03;27.60;;;16.35;;
64075;SDS011;50327;51.328;12.324;2023-04-15T11:23:36;27.35;;;15.50;;
64075;SDS011;50327;51.328;12.324;2023-04-15T11:26:03;27.42;;;16.30;;
64075;SDS011;50327;51.328;12.324;2023-04-15T11:28:33;24.50;;;14.70;;
64075;SDS011;50327;51.328;12.324;2023-04-15T11:31:06;27.10;;;15.45;;
64075;SDS011;50327;51.328;12.324;2023-04-15T11:33:32;28.90;;;15.32;;
64075;SDS011;50327;51.328;12.324;2023-04-15T11:35:57;25.58;;;15.38;;
64075;SDS011;50327;51.328;12.324;2023-04-15T11:38:23;25.05;;;15.60;;
64075;SDS011;50327;51.328;12.324;2023-04-15T11:40:49;28.13;;;15.63;;
64075;SDS011;50327;51.328;12.324;2023-04-15T11:43:15;29.30;;;16.52;;
64075;SDS011;50327;51.328;12.324;2023-04-15T11:45:58;28.00;;;14.93;;
64075;SDS011;50327;51.328;12.324;2023-04-15T11:48:31;25.67;;;15.30;;
64075;SDS011;50327;51.328;12.324;2023-04-15T11:50:57;28.13;;;15.43;;
64075;SDS011;50327;51.328;12.324;2023-04-15T11:53:23;27.77;;;15.57;;
64075;SDS011;50327;51.328;12.324;2023-04-15T11:55:49;25.60;;;14.80;;
64075;SDS011;50327;51.328;12.324;2023-04-15T12:00:41;29.40;;;15.32;;
64075;SDS011;50327;51.328;12.324;2023-04-15T12:03:16;24.90;;;14.25;;
64075;SDS011;50327;51.328;12.324;2023-04-15T12:08:48;26.05;;;14.02;;
64075;SDS011;50327;51.328;12.324;2023-04-15T12:11:16;20.95;;;13.18;;
64075;SDS011;50327;51.328;12.324;2023-04-15T12:13:45;21.70;;;12.38;;
64075;SDS011;50327;51.328;12.324;2023-04-15T12:18:39;33.97;;;15.63;;
64075;SDS011;50327;51.328;12.324;2023-04-15T12:21:10;29.43;;;15.17;;
64075;SDS011;50327;51.328;12.324;2023-04-15T12:23:51;28.73;;;15.68;;
64075;SDS011;50327;51.328;12.324;2023-04-15T12:26:17;28.30;;;15.43;;
64075;SDS011;50327;51.328;12.324;2023-04-15T12:28:49;24.40;;;13.38;;
64075;SDS011;50327;51.328;12.324;2023-04-15T12:31:17;26.47;;;15.93;;
64075;SDS011;50327;51.328;12.324;2023-04-15T12:33:46;30.60;;;15.40;;
64075;SDS011;50327;51.328;12.324;2023-04-15T12:36:12;19.75;;;12.07;;
64075;SDS011;50327;51.328;12.324;2023-04-15T12:38:37;25.35;;;14.70;;
64075;SDS011;50327;51.328;12.324;2023-04-15T12:41:02;22.02;;;11.02;;
64075;SDS011;50327;51.328;12.324;2023-04-15T12:43:27;20.52;;;11.13;;
64075;SDS011;50327;51.328;12.324;2023-04-15T12:45:53;30.88;;;17.27;;
64075;SDS011;50327;51.328;12.324;2023-04-15T12:48:18;15.43;;;9.75;;
64075;SDS011;50327;51.328;12.324;2023-04-15T12:50:43;17.85;;;11.25;;
64075;SDS011;50327;51.328;12.324;2023-04-15T12:53:08;15.85;;;9.15;;
64075;SDS011;50327;51.328;12.324;2023-04-15T12:55:34;12.23;;;7.50;;
64075;SDS011;50327;51.328;12.324;2023-04-15T12:57:59;13.20;;;7.50;;
64075;SDS011;50327;51.328;12.324;2023-04-15T13:00:24;12.45;;;6.97;;
64075;SDS011;50327;51.328;12.324;2023-04-15T13:02:49;16.00;;;8.02;;
64075;SDS011;50327;51.328;12.324;2023-04-15T13:05:14;16.08;;;9.43;;
64075;SDS011;50327;51.328;12.324;2023-04-15T13:07:40;9.35;;;6.55;;
64075;SDS011;50327;51.328;12.324;2023-04-15T13:10:05;13.15;;;7.35;;
64075;SDS011;50327;51.328;12.324;2023-04-15T13:12:31;11.18;;;6.70;;
64075;SDS011;50327;51.328;12.324;2023-04-15T13:15:00;11.48;;;6.80;;
64075;SDS011;50327;51.328;12.324;2023-04-15T13:17:25;16.15;;;8.65;;
64075;SDS011;50327;51.328;12.324;2023-04-15T13:19:50;26.25;;;12.23;;
64075;SDS011;50327;51.328;12.324;2023-04-15T13:22:15;25.05;;;11.13;;
64075;SDS011;50327;51.328;12.324;2023-04-15T13:24:41;22.98;;;10.93;;
64075;SDS011;50327;51.328;12.324;2023-04-15T13:27:06;70.53;;;23.75;;
64075;SDS011;50327;51.328;12.324;2023-04-15T13:29:32;68.80;;;27.85;;
64075;SDS011;50327;51.328;12.324;2023-04-15T13:31:57;32.38;;;13.25;;
64075;SDS011;50327;51.328;12.324;2023-04-15T13:34:22;28.83;;;12.98;;
64075;SDS011;50327;51.328;12.324;2023-04-15T13:36:47;40.78;;;15.82;;
64075;SDS011;50327;51.328;12.324;2023-04-15T13:39:13;25.02;;;13.13;;
64075;SDS011;50327;51.328;12.324;2023-04-15T13:41:38;20.23;;;11.02;;
64075;SDS011;50327;51.328;12.324;2023-04-15T13:44:04;18.67;;;10.20;;
64075;SDS011;50327;51.328;12.324;2023-04-15T13:46:30;12.82;;;7.93;;
64075;SDS011;50327;51.328;12.324;2023-04-15T13:48:55;14.10;;;7.65;;
64075;SDS011;50327;51.328;12.324;2023-04-15T13:51:20;17.77;;;8.82;;
64075;SDS011;50327;51.328;12.324;2023-04-15T13:53:45;14.63;;;8.68;;
64075;SDS011;50327;51.328;12.324;2023-04-15T13:56:11;10.73;;;6.82;;
64075;SDS011;50327;51.328;12.324;2023-04-15T13:58:36;11.82;;;6.78;;
64075;SDS011;50327;51.328;12.324;2023-04-15T14:01:02;13.48;;;7.55;;
64075;SDS011;50327;51.328;12.324;2023-04-15T14:03:27;9.48;;;6.15;;
64075;SDS011;50327;51.328;12.324;2023-04-15T14:05:53;11.45;;;6.40;;
64075;SDS011;50327;51.328;12.324;2023-04-15T14:08:20;10.45;;;6.10;;
64075;SDS011;50327;51.328;12.324;2023-04-15T14:10:45;11.38;;;7.18;;
64075;SDS011;50327;51.328;12.324;2023-04-15T14:13:12;10.60;;;5.85;;
64075;SDS011;50327;51.328;12.324;2023-04-15T14:15:39;9.88;;;6.50;;
64075;SDS011;50327;51.328;12.324;2023-04-15T14:18:04;15.18;;;5.80;;
64075;SDS011;50327;51.328;12.324;2023-04-15T14:20:29;11.20;;;6.55;;
64075;SDS011;50327;51.328;12.324;2023-04-15T14:22:55;12.88;;;5.55;;
64075;SDS011;50327;51.328;12.324;2023-04-15T14:25:20;10.90;;;6.93;;
64075;SDS011;50327;51.328;12.324;2023-04-15T14:27:45;9.90;;;6.57;;
64075;SDS011;50327;51.328;12.324;2023-04-15T14:30:10;10.65;;;6.47;;